Big Lake, Texas
Current Conditions -  °F | °C
As of 7:55 AM on Thursday 30 Oct 2014 (Local Time) from KOZA Reporting Station
Haze Haze  
Wind Chill: 59°   Ceiling: Unl
Heat Index: 59°   Visibility: 5mi
Dew Point: 57°   Wind: 6mph
Humidity: 94%   Direction: 190°S
Pressure: 30.16"   Gusts: NA
Location:  31.19°N, 101.46°W
Report Text: KOZA 301255Z AUTO 19005KT 5SM BR CLR 15/14 A3016 RMK AO2
Loading
Personal Weather Stations






























Interactive Weather Map New forecast layout! Learn more

10-Day Weather Forecast

Advertisements
Track Severe Weather on mobile